sensor_id;sensor_type;location;lat;lon;timestamp;pressure;altitude;pressure_sealevel;temperature;humidity
58467;BME280;44255;49.244;7.726;2023-03-01T04:32:08;99008.88;;;-4.85;47.14
58467;BME280;44255;49.244;7.726;2023-03-01T04:34:33;99002.66;;;-5.04;47.79
58467;BME280;44255;49.244;7.726;2023-03-01T04:36:59;99000.97;;;-4.96;47.57
58467;BME280;44255;49.244;7.726;2023-03-01T04:39:24;98999.19;;;-5.00;47.70
58467;BME280;44255;49.244;7.726;2023-03-01T04:41:49;98995.69;;;-5.01;48.00
58467;BME280;44255;49.244;7.726;2023-03-01T04:44:15;98993.06;;;-4.99;47.82
58467;BME280;44255;49.244;7.726;2023-03-01T04:46:40;99000.03;;;-5.09;48.08
58467;BME280;44255;49.244;7.726;2023-03-01T04:49:05;98999.22;;;-4.94;47.70
58467;BME280;44255;49.244;7.726;2023-03-01T04:51:31;99007.97;;;-4.93;47.57
58467;BME280;44255;49.244;7.726;2023-03-01T04:53:57;99000.91;;;-5.05;47.45
58467;BME280;44255;49.244;7.726;2023-03-01T04:56:23;99009.66;;;-5.06;47.12
58467;BME280;44255;49.244;7.726;2023-03-01T04:58:48;99010.50;;;-5.18;48.78
58467;BME280;44255;49.244;7.726;2023-03-01T05:01:18;99008.81;;;-5.07;48.17
58467;BME280;44255;49.244;7.726;2023-03-01T05:03:48;99015.72;;;-5.23;48.04
58467;BME280;44255;49.244;7.726;2023-03-01T05:06:15;99012.16;;;-5.33;48.61
58467;BME280;44255;49.244;7.726;2023-03-01T05:08:41;99011.31;;;-5.30;48.73
58467;BME280;44255;49.244;7.726;2023-03-01T05:11:07;99010.44;;;-5.27;48.58
58467;BME280;44255;49.244;7.726;2023-03-01T05:13:34;99007.53;;;-5.77;49.82
58467;BME280;44255;49.244;7.726;2023-03-01T05:16:01;99022.53;;;-5.56;49.37
58467;BME280;44255;49.244;7.726;2023-03-01T05:18:29;99017.34;;;-5.45;49.13
58467;BME280;44255;49.244;7.726;2023-03-01T05:20:56;99018.16;;;-5.54;49.75
58467;BME280;44255;49.244;7.726;2023-03-01T05:23:26;99013.88;;;-5.41;49.46
58467;BME280;44255;49.244;7.726;2023-03-01T05:25:51;99017.34;;;-5.45;48.25
58467;BME280;44255;49.244;7.726;2023-03-01T05:28:18;99013.03;;;-5.34;48.24
58467;BME280;44255;49.244;7.726;2023-03-01T05:30:45;99006.09;;;-5.25;48.27
58467;BME280;44255;49.244;7.726;2023-03-01T05:33:10;99008.63;;;-5.38;48.45
58467;BME280;44255;49.244;7.726;2023-03-01T05:35:39;99013.84;;;-5.44;48.54
58467;BME280;44255;49.244;7.726;2023-03-01T05:38:06;99014.75;;;-5.40;48.25
58467;BME280;44255;49.244;7.726;2023-03-01T05:40:33;99014.84;;;-5.23;48.20
58467;BME280;44255;49.244;7.726;2023-03-01T05:42:58;99008.47;;;-5.63;49.01
58467;BME280;44255;49.244;7.726;2023-03-01T05:45:26;99010.38;;;-5.41;49.01
58467;BME280;44255;49.244;7.726;2023-03-01T05:47:52;99007.69;;;-5.46;47.61
58467;BME280;44255;49.244;7.726;2023-03-01T05:50:20;99003.28;;;-5.53;48.61
58467;BME280;44255;49.244;7.726;2023-03-01T05:52:51;99014.56;;;-5.67;49.61
58467;BME280;44255;49.244;7.726;2023-03-01T05:55:20;99012.94;;;-5.49;49.39
58467;BME280;44255;49.244;7.726;2023-03-01T05:57:46;99018.88;;;-5.77;49.83
58467;BME280;44255;49.244;7.726;2023-03-01T06:00:13;99014.31;;;-6.01;50.53
58467;BME280;44255;49.244;7.726;2023-03-01T06:02:38;99004.97;;;-5.66;50.18
58467;BME280;44255;49.244;7.726;2023-03-01T06:05:08;99009.31;;;-5.70;50.19
58467;BME280;44255;49.244;7.726;2023-03-01T06:07:34;99010.06;;;-5.83;50.41
58467;BME280;44255;49.244;7.726;2023-03-01T06:10:00;99010.28;;;-5.55;50.01
58467;BME280;44255;49.244;7.726;2023-03-01T06:12:25;99006.72;;;-5.64;49.94
58467;BME280;44255;49.244;7.726;2023-03-01T06:14:50;99009.47;;;-5.44;49.25
58467;BME280;44255;49.244;7.726;2023-03-01T06:17:16;99012.13;;;-5.42;49.12
58467;BME280;44255;49.244;7.726;2023-03-01T06:19:41;99006.00;;;-5.38;49.29
58467;BME280;44255;49.244;7.726;2023-03-01T06:22:06;99003.44;;;-5.30;49.22
58467;BME280;44255;49.244;7.726;2023-03-01T06:24:32;99000.88;;;-5.10;48.45
58467;BME280;44255;49.244;7.726;2023-03-01T06:26:58;98987.72;;;-5.10;48.30
58467;BME280;44255;49.244;7.726;2023-03-01T06:29:23;98983.38;;;-5.12;48.94
58467;BME280;44255;49.244;7.726;2023-03-01T06:31:48;98979.88;;;-5.02;48.61
58467;BME280;44255;49.244;7.726;2023-03-01T06:34:14;98980.78;;;-4.98;48.86
58467;BME280;44255;49.244;7.726;2023-03-01T06:36:40;98975.50;;;-5.02;48.91
58467;BME280;44255;49.244;7.726;2023-03-01T06:39:06;98991.38;;;-4.78;48.00
58467;BME280;44255;49.244;7.726;2023-03-01T06:41:32;98980.84;;;-4.77;47.19
58467;BME280;44255;49.244;7.726;2023-03-01T06:43:58;98989.56;;;-4.95;48.84
58467;BME280;44255;49.244;7.726;2023-03-01T06:46:24;98987.88;;;-4.68;48.38
58467;BME280;44255;49.244;7.726;2023-03-01T06:48:49;98998.47;;;-4.54;47.61
58467;BME280;44255;49.244;7.726;2023-03-01T06:51:14;98987.94;;;-4.41;47.67
58467;BME280;44255;49.244;7.726;2023-03-01T06:53:39;98982.66;;;-4.54;47.65
58467;BME280;44255;49.244;7.726;2023-03-01T06:56:05;98979.09;;;-4.70;47.98
58467;BME280;44255;49.244;7.726;2023-03-01T06:58:30;98980.94;;;-4.35;48.25
58467;BME280;44255;49.244;7.726;2023-03-01T07:00:55;98987.09;;;-4.31;47.73
58467;BME280;44255;49.244;7.726;2023-03-01T07:03:20;98978.31;;;-4.32;48.13
58467;BME280;44255;49.244;7.726;2023-03-01T07:05:48;98974.81;;;-3.99;47.32
58467;BME280;44255;49.244;7.726;2023-03-01T07:08:13;98976.56;;;-4.09;48.21
58467;BME280;44255;49.244;7.726;2023-03-01T07:10:39;98984.44;;;-3.74;47.70
58467;BME280;44255;49.244;7.726;2023-03-01T07:13:04;98977.44;;;-3.87;47.92
58467;BME280;44255;49.244;7.726;2023-03-01T07:15:31;98971.25;;;-3.60;47.83
58467;BME280;44255;49.244;7.726;2023-03-01T07:17:57;98969.44;;;-3.37;47.69
58467;BME280;44255;49.244;7.726;2023-03-01T07:20:22;98970.28;;;-3.27;47.08
58467;BME280;44255;49.244;7.726;2023-03-01T07:22:50;98960.56;;;-3.14;47.35
58467;BME280;44255;49.244;7.726;2023-03-01T07:25:15;98961.38;;;-2.97;47.10
58467;BME280;44255;49.244;7.726;2023-03-01T07:27:40;98961.28;;;-2.75;46.10
58467;BME280;44255;49.244;7.726;2023-03-01T07:30:06;98962.16;;;-2.75;46.73
58467;BME280;44255;49.244;7.726;2023-03-01T07:32:31;98953.25;;;-2.56;45.85
58467;BME280;44255;49.244;7.726;2023-03-01T07:34:56;98953.28;;;-2.63;46.54
58467;BME280;44255;49.244;7.726;2023-03-01T07:37:21;98958.41;;;-2.38;45.40
58467;BME280;44255;49.244;7.726;2023-03-01T07:39:46;98948.50;;;-2.11;44.98
58467;BME280;44255;49.244;7.726;2023-03-01T07:42:12;98952.81;;;-2.02;45.49
58467;BME280;44255;49.244;7.726;2023-03-01T07:44:37;98944.91;;;-1.96;44.83
58467;BME280;44255;49.244;7.726;2023-03-01T07:47:03;98951.69;;;-1.68;44.20
58467;BME280;44255;49.244;7.726;2023-03-01T07:49:28;98944.53;;;-1.58;44.08
58467;BME280;44255;49.244;7.726;2023-03-01T07:51:53;98942.75;;;-1.55;44.31
58467;BME280;44255;49.244;7.726;2023-03-01T07:54:18;98936.44;;;-1.43;44.17
58467;BME280;44255;49.244;7.726;2023-03-01T07:56:43;98938.22;;;-1.45;44.55
58467;BME280;44255;49.244;7.726;2023-03-01T07:59:09;98928.34;;;-1.29;43.63
58467;BME280;44255;49.244;7.726;2023-03-01T08:01:34;98932.69;;;-1.23;43.21
58467;BME280;44255;49.244;7.726;2023-03-01T08:03:59;98926.41;;;-1.13;43.21
58467;BME280;44255;49.244;7.726;2023-03-01T08:06:24;98927.31;;;-1.17;42.91
58467;BME280;44255;49.244;7.726;2023-03-01T08:08:49;98920.16;;;-1.09;43.05
58467;BME280;44255;49.244;7.726;2023-03-01T08:11:15;98931.69;;;-1.14;43.36
58467;BME280;44255;49.244;7.726;2023-03-01T08:13:41;98925.59;;;-1.21;43.09
58467;BME280;44255;49.244;7.726;2023-03-01T08:16:07;98929.50;;;-0.83;42.97
58467;BME280;44255;49.244;7.726;2023-03-01T08:18:32;98924.78;;;-1.26;42.85
58467;BME280;44255;49.244;7.726;2023-03-01T08:21:02;98922.28;;;-0.70;42.88
58467;BME280;44255;49.244;7.726;2023-03-01T08:23:27;98914.25;;;-0.64;42.46
58467;BME280;44255;49.244;7.726;2023-03-01T08:25:52;98921.34;;;-0.66;42.38
58467;BME280;44255;49.244;7.726;2023-03-01T08:28:17;98928.63;;;-0.82;42.72
58467;BME280;44255;49.244;7.726;2023-03-01T08:30:43;98921.06;;;-0.47;41.84
58467;BME280;44255;49.244;7.726;2023-03-01T08:33:08;98909.84;;;-0.63;41.91
58467;BME280;44255;49.244;7.726;2023-03-01T08:35:33;98913.19;;;-0.52;41.97
58467;BME280;44255;49.244;7.726;2023-03-01T08:37:58;98906.75;;;-0.35;41.88
58467;BME280;44255;49.244;7.726;2023-03-01T08:40:23;98910.84;;;-0.15;41.50
58467;BME280;44255;49.244;7.726;2023-03-01T08:42:48;98905.00;;;-0.35;41.55
58467;BME280;44255;49.244;7.726;2023-03-01T08:45:14;98903.19;;;-0.33;41.51
58467;BME280;44255;49.244;7.726;2023-03-01T08:47:43;98895.59;;;-0.01;41.35
58467;BME280;44255;49.244;7.726;2023-03-01T08:50:08;98886.50;;;0.14;40.81
58467;BME280;44255;49.244;7.726;2023-03-01T08:52:33;98899.91;;;0.03;40.77
58467;BME280;44255;49.244;7.726;2023-03-01T08:54:59;98898.03;;;0.10;40.53
58467;BME280;44255;49.244;7.726;2023-03-01T08:57:26;98883.53;;;0.30;40.72
58467;BME280;44255;49.244;7.726;2023-03-01T08:59:51;98878.28;;;0.28;40.22
58467;BME280;44255;49.244;7.726;2023-03-01T09:02:17;98869.47;;;0.26;40.30
58467;BME280;44255;49.244;7.726;2023-03-01T09:04:43;98875.94;;;0.11;40.57
58467;BME280;44255;49.244;7.726;2023-03-01T09:07:09;98869.81;;;0.56;40.51
58467;BME280;44255;49.244;7.726;2023-03-01T09:09:34;98869.06;;;0.48;39.83
58467;BME280;44255;49.244;7.726;2023-03-01T09:12:00;98872.13;;;0.72;40.21
58467;BME280;44255;49.244;7.726;2023-03-01T09:14:25;98868.63;;;0.70;39.86
58467;BME280;44255;49.244;7.726;2023-03-01T09:16:50;98862.47;;;0.69;39.64
58467;BME280;44255;49.244;7.726;2023-03-01T09:19:16;98865.91;;;0.74;39.70
58467;BME280;44255;49.244;7.726;2023-03-01T09:21:41;98862.84;;;0.93;39.61
58467;BME280;44255;49.244;7.726;2023-03-01T09:24:08;98859.50;;;0.85;39.32
58467;BME280;44255;49.244;7.726;2023-03-01T09:26:38;98849.56;;;0.93;39.41
58467;BME280;44255;49.244;7.726;2023-03-01T09:29:03;98854.53;;;0.67;39.02
58467;BME280;44255;49.244;7.726;2023-03-01T09:31:28;98844.41;;;0.87;38.85
58467;BME280;44255;49.244;7.726;2023-03-01T09:33:53;98847.47;;;1.07;38.68
58467;BME280;44255;49.244;7.726;2023-03-01T09:36:20;98843.53;;;0.86;39.49
58467;BME280;44255;49.244;7.726;2023-03-01T09:38:46;98848.81;;;0.86;39.06
58467;BME280;44255;49.244;7.726;2023-03-01T09:43:46;98840.19;;;1.16;38.62
58467;BME280;44255;49.244;7.726;2023-03-01T09:46:19;98847.22;;;1.18;38.61
58467;BME280;44255;49.244;7.726;2023-03-01T09:48:49;98841.00;;;1.19;38.81
58467;BME280;44255;49.244;7.726;2023-03-01T09:51:19;98839.09;;;1.26;38.68
58467;BME280;44255;49.244;7.726;2023-03-01T09:53:48;98848.38;;;1.08;39.01
58467;BME280;44255;49.244;7.726;2023-03-01T10:01:23;98850.47;;;1.31;37.99
58467;BME280;44255;49.244;7.726;2023-03-01T10:06:29;98847.69;;;1.36;37.56
58467;BME280;44255;49.244;7.726;2023-03-01T10:08:58;98845.50;;;1.53;38.26
58467;BME280;44255;49.244;7.726;2023-03-01T10:11:26;98840.56;;;1.38;37.78
58467;BME280;44255;49.244;7.726;2023-03-01T10:14:01;98831.94;;;1.30;38.52
58467;BME280;44255;49.244;7.726;2023-03-01T10:18:59;98832.03;;;1.61;37.46
58467;BME280;44255;49.244;7.726;2023-03-01T10:21:25;98825.34;;;1.45;37.54
58467;BME280;44255;49.244;7.726;2023-03-01T10:23:51;98832.59;;;1.38;37.69
58467;BME280;44255;49.244;7.726;2023-03-01T10:31:36;98812.19;;;1.76;37.05
58467;BME280;44255;49.244;7.726;2023-03-01T10:34:07;98818.84;;;1.57;37.18
58467;BME280;44255;49.244;7.726;2023-03-01T10:36:33;98812.81;;;1.86;36.99
58467;BME280;44255;49.244;7.726;2023-03-01T10:38:58;98823.28;;;1.91;37.37
58467;BME280;44255;49.244;7.726;2023-03-01T10:41:25;98804.78;;;1.88;37.54
58467;BME280;44255;49.244;7.726;2023-03-01T10:43:51;98811.00;;;1.87;37.24
58467;BME280;44255;49.244;7.726;2023-03-01T10:46:28;98806.38;;;1.95;37.39
58467;BME280;44255;49.244;7.726;2023-03-01T10:51:38;98802.59;;;1.71;37.25
58467;BME280;44255;49.244;7.726;2023-03-01T10:54:04;98806.50;;;1.90;37.76
58467;BME280;44255;49.244;7.726;2023-03-01T10:56:59;98798.94;;;2.08;36.66
58467;BME280;44255;49.244;7.726;2023-03-01T10:59:35;98808.06;;;1.98;37.18
58467;BME280;44255;49.244;7.726;2023-03-01T11:02:22;98797.38;;;2.32;36.58
58467;BME280;44255;49.244;7.726;2023-03-01T11:04:56;98790.75;;;2.14;36.55
58467;BME280;44255;49.244;7.726;2023-03-01T11:07:22;98790.88;;;2.09;37.01
58467;BME280;44255;49.244;7.726;2023-03-01T11:09:47;98798.94;;;2.08;37.36
58467;BME280;44255;49.244;7.726;2023-03-01T11:12:15;98788.22;;;2.43;36.52
58467;BME280;44255;49.244;7.726;2023-03-01T11:14:48;98781.03;;;2.46;36.14
58467;BME280;44255;49.244;7.726;2023-03-01T11:19:39;98775.81;;;2.42;36.37
58467;BME280;44255;49.244;7.726;2023-03-01T11:22:14;98774.63;;;2.82;35.76
58467;BME280;44255;49.244;7.726;2023-03-01T11:24:43;98772.22;;;2.44;36.72
58467;BME280;44255;49.244;7.726;2023-03-01T11:27:25;98770.31;;;2.78;36.86
58467;BME280;44255;49.244;7.726;2023-03-01T11:30:02;98757.41;;;2.94;35.92
58467;BME280;44255;49.244;7.726;2023-03-01T11:32:33;98752.91;;;2.96;35.66
58467;BME280;44255;49.244;7.726;2023-03-01T11:35:02;98751.19;;;3.22;35.88
58467;BME280;44255;49.244;7.726;2023-03-01T11:40:21;98737.88;;;2.65;35.42
58467;BME280;44255;49.244;7.726;2023-03-01T11:45:37;98726.94;;;3.30;35.19
58467;BME280;44255;49.244;7.726;2023-03-01T11:53:05;98727.03;;;4.28;34.44
58467;BME280;44255;49.244;7.726;2023-03-01T12:08:47;98691.44;;;4.75;33.35
58467;BME280;44255;49.244;7.726;2023-03-01T12:26:51;98644.66;;;7.56;29.26
58467;BME280;44255;49.244;7.726;2023-03-01T12:29:25;98640.16;;;8.88;27.47
58467;BME280;44255;49.244;7.726;2023-03-01T12:31:55;98633.13;;;13.20;23.08
58467;BME280;44255;49.244;7.726;2023-03-01T12:39:38;98623.94;;;18.18;17.67
58467;BME280;44255;49.244;7.726;2023-03-01T12:42:17;98611.34;;;19.99;16.10
58467;BME280;44255;49.244;7.726;2023-03-01T12:50:12;98609.19;;;20.53;15.42
58467;BME280;44255;49.244;7.726;2023-03-01T12:52:46;98616.81;;;23.20;13.80
58467;BME280;44255;49.244;7.726;2023-03-01T12:55:19;98611.19;;;23.37;13.60
58467;BME280;44255;49.244;7.726;2023-03-01T12:57:48;98611.88;;;23.92;13.18
58467;BME280;44255;49.244;7.726;2023-03-01T13:02:47;98602.72;;;22.92;13.42
58467;BME280;44255;49.244;7.726;2023-03-01T13:13:14;98595.28;;;23.47;12.77
58467;BME280;44255;49.244;7.726;2023-03-01T13:15:39;98591.06;;;22.58;13.90
58467;BME280;44255;49.244;7.726;2023-03-01T13:23:24;98572.09;;;23.03;13.39
58467;BME280;44255;49.244;7.726;2023-03-01T13:30:58;98570.91;;;22.03;13.66
58467;BME280;44255;49.244;7.726;2023-03-01T13:35:52;98571.66;;;22.91;13.53
58467;BME280;44255;49.244;7.726;2023-03-01T13:41:02;98560.94;;;21.93;13.69
58467;BME280;44255;49.244;7.726;2023-03-01T13:43:28;98558.44;;;22.32;13.97
58467;BME280;44255;49.244;7.726;2023-03-01T13:45:54;98560.78;;;22.03;14.37
58467;BME280;44255;49.244;7.726;2023-03-01T13:48:24;98550.38;;;21.74;14.83
58467;BME280;44255;49.244;7.726;2023-03-01T13:50:55;98547.22;;;22.02;14.67
58467;BME280;44255;49.244;7.726;2023-03-01T13:53:23;98544.94;;;19.80;16.04
58467;BME280;44255;49.244;7.726;2023-03-01T13:55:56;98541.63;;;18.33;17.08
58467;BME280;44255;49.244;7.726;2023-03-01T14:00:55;98540.06;;;17.64;17.68
58467;BME280;44255;49.244;7.726;2023-03-01T14:03:20;98534.00;;;17.03;18.15
58467;BME280;44255;49.244;7.726;2023-03-01T14:05:59;98533.84;;;16.55;18.87
58467;BME280;44255;49.244;7.726;2023-03-01T14:08:26;98526.41;;;16.97;18.35
58467;BME280;44255;49.244;7.726;2023-03-01T14:13:54;98540.03;;;15.23;19.70
58467;BME280;44255;49.244;7.726;2023-03-01T14:19:18;98542.28;;;16.01;19.05
58467;BME280;44255;49.244;7.726;2023-03-01T14:21:45;98544.66;;;15.85;19.22
58467;BME280;44255;49.244;7.726;2023-03-01T14:24:17;98539.03;;;15.24;20.00
58467;BME280;44255;49.244;7.726;2023-03-01T14:26:42;98535.81;;;16.24;19.07
58467;BME280;44255;49.244;7.726;2023-03-01T14:29:22;98537.56;;;15.41;19.72
58467;BME280;44255;49.244;7.726;2023-03-01T14:31:48;98534.88;;;15.72;19.23
58467;BME280;44255;49.244;7.726;2023-03-01T14:34:18;98533.81;;;17.24;18.13
58467;BME280;44255;49.244;7.726;2023-03-01T14:36:45;98534.13;;;17.21;18.03
58467;BME280;44255;49.244;7.726;2023-03-01T14:39:17;98534.16;;;16.82;18.64
58467;BME280;44255;49.244;7.726;2023-03-01T14:41:43;98531.91;;;17.54;18.05
58467;BME280;44255;49.244;7.726;2023-03-01T14:44:12;98526.25;;;17.76;17.57
58467;BME280;44255;49.244;7.726;2023-03-01T14:46:40;98532.81;;;17.16;17.63
58467;BME280;44255;49.244;7.726;2023-03-01T14:49:22;98532.81;;;17.83;17.82
58467;BME280;44255;49.244;7.726;2023-03-01T14:51:58;98538.91;;;16.09;18.48
58467;BME280;44255;49.244;7.726;2023-03-01T14:54:25;98540.66;;;16.20;18.89
58467;BME280;44255;49.244;7.726;2023-03-01T14:56:52;98540.00;;;15.44;19.69
58467;BME280;44255;49.244;7.726;2023-03-01T14:59:19;98529.44;;;14.99;19.95
58467;BME280;44255;49.244;7.726;2023-03-01T15:01:46;98531.34;;;14.87;20.06
58467;BME280;44255;49.244;7.726;2023-03-01T15:04:12;98537.91;;;14.52;20.16
58467;BME280;44255;49.244;7.726;2023-03-01T15:06:38;98537.16;;;14.82;20.24
58467;BME280;44255;49.244;7.726;2023-03-01T15:09:04;98541.91;;;13.56;20.93
58467;BME280;44255;49.244;7.726;2023-03-01T15:11:32;98539.34;;;13.89;20.57
58467;BME280;44255;49.244;7.726;2023-03-01T15:13:57;98540.34;;;13.65;20.89
58467;BME280;44255;49.244;7.726;2023-03-01T15:16:28;98544.97;;;13.40;21.43
58467;BME280;44255;49.244;7.726;2023-03-01T15:18:55;98543.34;;;13.15;20.89
58467;BME280;44255;49.244;7.726;2023-03-01T15:21:22;98548.38;;;13.31;21.56
58467;BME280;44255;49.244;7.726;2023-03-01T15:23:55;98540.69;;;12.66;21.76
58467;BME280;44255;49.244;7.726;2023-03-01T15:26:29;98544.47;;;12.88;21.45
58467;BME280;44255;49.244;7.726;2023-03-01T15:28:55;98550.31;;;13.06;21.37
58467;BME280;44255;49.244;7.726;2023-03-01T15:31:32;98551.13;;;13.42;20.97
58467;BME280;44255;49.244;7.726;2023-03-01T15:36:44;98566.66;;;12.31;22.07
58467;BME280;44255;49.244;7.726;2023-03-01T15:41:54;98566.38;;;12.72;21.74
58467;BME280;44255;49.244;7.726;2023-03-01T15:44:30;98570.97;;;12.34;21.90
58467;BME280;44255;49.244;7.726;2023-03-01T15:46:56;98568.72;;;11.65;22.72
58467;BME280;44255;49.244;7.726;2023-03-01T15:49:43;98569.88;;;11.99;22.43
58467;BME280;44255;49.244;7.726;2023-03-01T15:52:10;98577.97;;;12.37;22.17
58467;BME280;44255;49.244;7.726;2023-03-01T15:54:36;98569.38;;;12.80;22.03
58467;BME280;44255;49.244;7.726;2023-03-01T15:57:05;98577.88;;;12.63;21.83
58467;BME280;44255;49.244;7.726;2023-03-01T15:59:30;98565.28;;;12.99;21.27
58467;BME280;44255;49.244;7.726;2023-03-01T16:01:55;98573.47;;;12.61;21.76
58467;BME280;44255;49.244;7.726;2023-03-01T16:04:21;98574.00;;;12.29;21.74
58467;BME280;44255;49.244;7.726;2023-03-01T16:06:47;98579.19;;;11.95;22.13
58467;BME280;44255;49.244;7.726;2023-03-01T16:09:18;98580.59;;;11.36;22.77
58467;BME280;44255;49.244;7.726;2023-03-01T16:11:44;98572.19;;;11.54;22.91
58467;BME280;44255;49.244;7.726;2023-03-01T16:14:09;98575.19;;;10.55;23.45
58467;BME280;44255;49.244;7.726;2023-03-01T16:16:34;98585.22;;;10.11;24.23
58467;BME280;44255;49.244;7.726;2023-03-01T16:19:00;98579.84;;;9.68;24.53
58467;BME280;44255;49.244;7.726;2023-03-01T16:21:25;98581.13;;;9.17;25.04
58467;BME280;44255;49.244;7.726;2023-03-01T16:23:51;98573.44;;;9.11;25.13
58467;BME280;44255;49.244;7.726;2023-03-01T16:26:17;98587.00;;;8.62;25.85
58467;BME280;44255;49.244;7.726;2023-03-01T16:28:43;98586.66;;;8.37;26.20
58467;BME280;44255;49.244;7.726;2023-03-01T16:31:08;98579.47;;;8.84;25.34
58467;BME280;44255;49.244;7.726;2023-03-01T16:33:34;98573.56;;;8.93;25.62
58467;BME280;44255;49.244;7.726;2023-03-01T16:36:10;98572.44;;;8.50;25.55
58467;BME280;44255;49.244;7.726;2023-03-01T16:38:35;98570.72;;;8.33;26.23
58467;BME280;44255;49.244;7.726;2023-03-01T16:41:00;98566.56;;;8.28;25.88
58467;BME280;44255;49.244;7.726;2023-03-01T16:43:26;98568.91;;;8.02;26.29
58467;BME280;44255;49.244;7.726;2023-03-01T16:45:51;98563.91;;;7.78;26.28
58467;BME280;44255;49.244;7.726;2023-03-01T16:48:16;98570.63;;;7.53;26.80
58467;BME280;44255;49.244;7.726;2023-03-01T16:50:42;98574.38;;;7.33;27.59
58467;BME280;44255;49.244;7.726;2023-03-01T16:53:07;98574.03;;;7.39;27.59
58467;BME280;44255;49.244;7.726;2023-03-01T16:55:32;98577.66;;;7.38;27.29
58467;BME280;44255;49.244;7.726;2023-03-01T16:57:58;98584.41;;;7.12;27.45
58467;BME280;44255;49.244;7.726;2023-03-01T17:00:23;98582.59;;;7.12;27.21
58467;BME280;44255;49.244;7.726;2023-03-01T17:02:48;98589.06;;;6.90;27.32
58467;BME280;44255;49.244;7.726;2023-03-01T17:05:13;98589.31;;;7.03;27.61
58467;BME280;44255;49.244;7.726;2023-03-01T17:07:39;98595.44;;;6.69;27.93
58467;BME280;44255;49.244;7.726;2023-03-01T17:10:05;98595.75;;;6.82;28.07
58467;BME280;44255;49.244;7.726;2023-03-01T17:12:32;98594.59;;;6.68;27.63
58467;BME280;44255;49.244;7.726;2023-03-01T17:14:58;98595.22;;;6.36;27.84
58467;BME280;44255;49.244;7.726;2023-03-01T17:17:24;98576.53;;;6.54;28.37
58467;BME280;44255;49.244;7.726;2023-03-01T17:19:49;98569.28;;;6.93;27.63
58467;BME280;44255;49.244;7.726;2023-03-01T17:22:15;98578.09;;;6.77;28.15
58467;BME280;44255;49.244;7.726;2023-03-01T17:24:41;98578.19;;;6.76;27.77
58467;BME280;44255;49.244;7.726;2023-03-01T17:27:07;98586.94;;;6.23;28.77
58467;BME280;44255;49.244;7.726;2023-03-01T17:29:32;98583.53;;;6.20;28.90
58467;BME280;44255;49.244;7.726;2023-03-01T17:31:57;98572.13;;;6.71;28.03
58467;BME280;44255;49.244;7.726;2023-03-01T17:34:23;98580.69;;;6.79;27.88
58467;BME280;44255;49.244;7.726;2023-03-01T17:36:48;98591.38;;;6.05;28.64
58467;BME280;44255;49.244;7.726;2023-03-01T17:39:16;98604.22;;;5.97;28.18
58467;BME280;44255;49.244;7.726;2023-03-01T17:41:41;98601.72;;;5.94;29.31
58467;BME280;44255;49.244;7.726;2023-03-01T17:44:06;98597.22;;;5.75;29.43
58467;BME280;44255;49.244;7.726;2023-03-01T17:46:32;98599.00;;;5.56;29.60
58467;BME280;44255;49.244;7.726;2023-03-01T17:48:57;98597.13;;;5.77;29.03
58467;BME280;44255;49.244;7.726;2023-03-01T17:51:22;98614.75;;;5.62;28.88
58467;BME280;44255;49.244;7.726;2023-03-01T17:53:47;98606.34;;;5.50;29.50
58467;BME280;44255;49.244;7.726;2023-03-01T17:56:12;98619.00;;;5.47;29.47
58467;BME280;44255;49.244;7.726;2023-03-01T17:58:38;98615.53;;;5.45;30.08
58467;BME280;44255;49.244;7.726;2023-03-01T18:01:11;98605.75;;;5.44;29.83
58467;BME280;44255;49.244;7.726;2023-03-01T18:03:37;98605.66;;;5.25;30.86
58467;BME280;44255;49.244;7.726;2023-03-01T18:06:08;98614.47;;;4.85;30.73
58467;BME280;44255;49.244;7.726;2023-03-01T18:08:34;98616.53;;;4.78;31.19
58467;BME280;44255;49.244;7.726;2023-03-01T18:10:59;98617.47;;;4.77;31.03
58467;BME280;44255;49.244;7.726;2023-03-01T18:13:24;98620.41;;;4.92;30.95
58467;BME280;44255;49.244;7.726;2023-03-01T18:15:49;98618.75;;;4.22;32.07
58467;BME280;44255;49.244;7.726;2023-03-01T18:18:14;98617.66;;;3.31;33.90
58467;BME280;44255;49.244;7.726;2023-03-01T18:20:40;98620.31;;;3.57;33.80
58467;BME280;44255;49.244;7.726;2023-03-01T18:23:05;98627.47;;;3.56;33.67
58467;BME280;44255;49.244;7.726;2023-03-01T18:25:30;98630.19;;;3.29;34.40
58467;BME280;44255;49.244;7.726;2023-03-01T18:27:56;98622.06;;;3.58;34.00
58467;BME280;44255;49.244;7.726;2023-03-01T18:30:21;98629.28;;;3.03;34.62
58467;BME280;44255;49.244;7.726;2023-03-01T18:32:46;98624.50;;;2.88;35.37
58467;BME280;44255;49.244;7.726;2023-03-01T18:35:12;98631.41;;;3.19;34.76
58467;BME280;44255;49.244;7.726;2023-03-01T18:37:37;98626.03;;;3.46;33.79
58467;BME280;44255;49.244;7.726;2023-03-01T18:40:03;98629.53;;;2.95;35.08
58467;BME280;44255;49.244;7.726;2023-03-01T18:42:28;98629.94;;;3.10;34.90
58467;BME280;44255;49.244;7.726;2023-03-01T18:44:53;98632.75;;;2.80;35.31
58467;BME280;44255;49.244;7.726;2023-03-01T18:47:19;98624.31;;;3.19;34.81
58467;BME280;44255;49.244;7.726;2023-03-01T18:49:44;98647.00;;;2.20;36.62
58467;BME280;44255;49.244;7.726;2023-03-01T18:52:09;98639.06;;;2.19;36.78
58467;BME280;44255;49.244;7.726;2023-03-01T18:54:35;98636.75;;;2.08;36.63
58467;BME280;44255;49.244;7.726;2023-03-01T18:57:00;98626.34;;;2.00;36.95
58467;BME280;44255;49.244;7.726;2023-03-01T18:59:25;98636.47;;;1.87;37.36
58467;BME280;44255;49.244;7.726;2023-03-01T19:01:50;98633.94;;;1.82;36.72
58467;BME280;44255;49.244;7.726;2023-03-01T19:04:15;98631.69;;;1.68;37.22
58467;BME280;44255;49.244;7.726;2023-03-01T19:06:41;98631.16;;;1.56;37.50
58467;BME280;44255;49.244;7.726;2023-03-01T19:09:06;98628.94;;;1.72;37.42
58467;BME280;44255;49.244;7.726;2023-03-01T19:11:32;98622.44;;;1.19;38.69
58467;BME280;44255;49.244;7.726;2023-03-01T19:13:59;98622.50;;;1.80;37.32
58467;BME280;44255;49.244;7.726;2023-03-01T19:16:25;98632.19;;;1.50;37.67
58467;BME280;44255;49.244;7.726;2023-03-01T19:18:55;98622.28;;;1.23;38.00
58467;BME280;44255;49.244;7.726;2023-03-01T19:21:21;98619.81;;;1.17;37.79
58467;BME280;44255;49.244;7.726;2023-03-01T19:23:47;98620.53;;;1.56;37.37
58467;BME280;44255;49.244;7.726;2023-03-01T19:26:16;98618.75;;;1.24;37.78
58467;BME280;44255;49.244;7.726;2023-03-01T19:28:41;98616.84;;;0.96;39.09